createdAt,value
2022-12-03T00:03:58.898Z,102545.72
2022-12-03T00:09:01.759Z,102538.84
2022-12-03T00:14:04.636Z,102533.13
2022-12-03T00:19:08.790Z,102536.09
2022-12-03T00:24:11.515Z,102542.00
2022-12-03T00:29:14.303Z,102533.88
2022-12-03T00:34:18.380Z,102531.47
2022-12-03T00:39:21.226Z,102533.31
2022-12-03T00:44:23.985Z,102536.47
2022-12-03T00:49:28.111Z,102530.00
2022-12-03T00:54:32.253Z,102533.69
2022-12-03T00:59:35.156Z,102536.66
2022-12-03T01:04:39.394Z,102531.66
2022-12-03T01:09:42.217Z,102535.94
2022-12-03T01:14:45.182Z,102540.75
2022-12-03T01:19:52.284Z,102546.28
2022-12-03T01:24:55.411Z,102541.28
2022-12-03T01:29:58.291Z,102539.06
2022-12-03T01:35:02.410Z,102535.75
2022-12-03T01:40:06.100Z,102534.66
2022-12-03T01:45:20.392Z,102532.25
2022-12-03T01:50:31.070Z,102529.06
2022-12-03T01:55:33.956Z,102531.09
2022-12-03T02:00:36.727Z,102546.81
2022-12-03T02:05:40.830Z,102549.78
2022-12-03T02:10:43.612Z,102544.41
2022-12-03T02:15:46.690Z,102546.44
2022-12-03T02:20:59.543Z,102544.41
2022-12-03T02:26:03.661Z,102539.41
2022-12-03T02:31:06.484Z,102546.63
2022-12-03T02:36:10.141Z,102539.59
2022-12-03T02:41:37.941Z,102529.81
2022-12-03T02:46:40.886Z,102521.28
2022-12-03T02:51:43.729Z,102523.34
2022-12-03T02:56:47.862Z,102531.66
2022-12-03T03:01:50.686Z,102531.28
2022-12-03T03:06:53.846Z,102525.75
2022-12-03T03:11:57.922Z,102518.16
2022-12-03T03:17:00.806Z,102503.75
2022-12-03T03:22:03.622Z,102521.66
2022-12-03T03:27:07.814Z,102518.88
2022-12-03T03:32:10.654Z,102512.25
2022-12-03T03:37:13.543Z,102509.84
2022-12-03T03:42:17.982Z,102495.78
2022-12-03T03:47:21.156Z,102498.41
2022-12-03T03:52:24.272Z,102485.63
2022-12-03T03:57:28.495Z,102477.69
2022-12-03T04:02:33.085Z,102469.34
2022-12-03T04:07:35.915Z,102473.97
2022-12-03T04:12:58.504Z,102467.09
2022-12-03T04:18:18.923Z,102449.75
2022-12-03T04:23:23.939Z,102447.16
2022-12-03T04:28:49.339Z,102444.03
2022-12-03T04:34:09.799Z,102437.72
2022-12-03T04:39:12.571Z,102439.22
2022-12-03T04:44:36.174Z,102443.44
2022-12-03T04:49:40.614Z,102436.81
2022-12-03T04:54:43.391Z,102439.19
2022-12-03T04:59:47.480Z,102439.94
2022-12-03T05:04:50.241Z,102436.81
2022-12-03T05:09:52.953Z,102433.66
2022-12-03T05:14:57.063Z,102428.28
2022-12-03T05:20:17.273Z,102426.63
2022-12-03T05:25:19.991Z,102433.09
2022-12-03T05:30:24.134Z,102434.22
2022-12-03T05:35:28.444Z,102420.16
2022-12-03T05:40:31.212Z,102428.09
2022-12-03T05:45:37.292Z,102428.69
2022-12-03T05:50:43.192Z,102428.84
2022-12-03T05:55:45.957Z,102409.78
2022-12-03T06:00:50.053Z,102404.78
2022-12-03T06:05:52.776Z,102409.25
2022-12-03T06:10:55.486Z,102413.34
2022-12-03T06:15:59.662Z,102402.41
2022-12-03T06:21:02.413Z,102421.81
2022-12-03T06:26:05.253Z,102407.38
2022-12-03T06:31:09.455Z,102406.84
2022-12-03T06:36:12.242Z,102398.16
2022-12-03T06:41:15.006Z,102400.38
2022-12-03T06:46:19.102Z,102402.41
2022-12-03T06:51:21.891Z,102409.59
2022-12-03T06:56:25.760Z,102415.16
2022-12-03T07:01:31.499Z,102412.38
2022-12-03T07:06:34.320Z,102406.13
2022-12-03T07:11:40.772Z,102406.66
2022-12-03T07:16:45.065Z,102401.66
2022-12-03T07:21:47.814Z,102393.72
2022-12-03T07:26:50.549Z,102394.44
2022-12-03T07:31:54.750Z,102396.13
2022-12-03T07:36:57.544Z,102391.50
2022-12-03T07:42:00.282Z,102399.44
2022-12-03T07:47:04.537Z,102389.84
2022-12-03T07:52:07.317Z,102379.69
2022-12-03T07:57:10.026Z,102382.63
2022-12-03T08:02:20.773Z,102393.34
2022-12-03T08:07:24.452Z,102396.66
2022-12-03T08:12:40.048Z,102391.31
2022-12-03T08:17:46.568Z,102384.47
2022-12-03T08:22:51.373Z,102377.44
2022-12-03T08:27:57.747Z,102382.97
2022-12-03T08:33:01.866Z,102378.50
2022-12-03T08:38:12.248Z,102390.00
2022-12-03T08:43:20.924Z,102389.22
2022-12-03T08:48:29.104Z,102388.84
2022-12-03T08:53:34.278Z,102388.84
2022-12-03T08:58:41.815Z,102383.13
2022-12-03T09:03:51.161Z,102380.50
2022-12-03T09:08:53.921Z,102382.72
2022-12-03T09:13:56.661Z,102377.88
2022-12-03T09:19:00.779Z,102373.06
2022-12-03T09:24:03.518Z,102358.63
2022-12-03T09:29:11.869Z,102368.41
2022-12-03T09:34:16.761Z,102361.94
2022-12-03T09:39:19.542Z,102355.25
2022-12-03T09:44:22.520Z,102361.72
2022-12-03T09:49:28.838Z,102356.72
2022-12-03T09:54:32.513Z,102347.63
2022-12-03T09:59:35.634Z,102336.53
2022-12-03T10:04:39.856Z,102344.13
2022-12-03T10:09:42.842Z,102347.97
2022-12-03T10:14:45.706Z,102345.38
2022-12-03T10:19:50.034Z,102328.91
2022-12-03T10:25:08.867Z,102320.97
2022-12-03T10:30:20.570Z,102314.28
2022-12-03T10:35:26.783Z,102317.59
2022-12-03T10:40:31.490Z,102321.47
2022-12-03T10:45:34.227Z,102311.44
2022-12-03T10:50:55.521Z,102302.75
2022-12-03T10:56:01.871Z,102298.81
2022-12-03T11:01:14.329Z,102297.75
2022-12-03T11:06:20.819Z,102289.22
2022-12-03T11:11:26.291Z,102284.03
2022-12-03T11:17:11.237Z,102283.69
2022-12-03T11:22:27.001Z,102275.31
2022-12-03T11:27:29.782Z,102274.72
2022-12-03T11:33:09.130Z,102272.06
2022-12-03T11:38:52.339Z,102272.41
2022-12-03T11:44:29.239Z,102251.88
2022-12-03T11:49:37.430Z,102244.06
2022-12-03T11:54:41.562Z,102232.94
2022-12-03T11:59:58.209Z,102235.38
2022-12-03T12:05:26.441Z,102236.94
2022-12-03T12:10:45.650Z,102230.56
2022-12-03T12:15:48.421Z,102218.94
2022-12-03T12:20:51.304Z,102211.72
2022-12-03T12:26:07.610Z,102213.94
2022-12-03T12:31:12.104Z,102214.06
2022-12-03T12:36:14.861Z,102205.50
2022-12-03T12:41:18.937Z,102209.22
2022-12-03T12:46:47.230Z,102193.81
2022-12-03T12:51:46.544Z,102194.56
2022-12-03T12:56:51.416Z,102191.41
2022-12-03T13:01:54.318Z,102186.97
2022-12-03T13:06:57.113Z,102182.88
2022-12-03T13:12:04.004Z,102177.69
2022-12-03T13:17:15.919Z,102172.81
2022-12-03T13:22:21.292Z,102179.00
2022-12-03T13:27:29.482Z,102180.97
2022-12-03T13:32:34.711Z,102179.38
2022-12-03T13:37:38.398Z,102179.25
2022-12-03T13:42:42.527Z,102176.50
2022-12-03T13:47:46.995Z,102175.81
2022-12-03T13:52:49.756Z,102175.47
2022-12-03T13:57:54.010Z,102167.34
2022-12-03T14:02:56.774Z,102171.25
2022-12-03T14:08:02.184Z,102177.00
2022-12-03T14:13:06.482Z,102176.50
2022-12-03T14:18:09.212Z,102188.75
2022-12-03T14:23:11.939Z,102190.94
2022-12-03T14:28:16.013Z,102188.00
2022-12-03T14:33:18.783Z,102189.13
2022-12-03T14:38:21.505Z,102184.31
2022-12-03T14:43:25.614Z,102182.88
2022-12-03T14:48:28.340Z,102181.94
2022-12-03T14:53:31.088Z,102181.59
2022-12-03T14:58:35.341Z,102188.66
2022-12-03T15:03:38.099Z,102173.31
2022-12-03T15:08:40.849Z,102169.06
2022-12-03T15:13:44.992Z,102175.91
2022-12-03T15:18:47.753Z,102173.69
2022-12-03T15:23:50.609Z,102172.41
2022-12-03T15:28:54.886Z,102176.63
2022-12-03T15:33:57.718Z,102174.22
2022-12-03T15:39:00.483Z,102164.06
2022-12-03T15:44:04.647Z,102162.41
2022-12-03T15:49:07.389Z,102170.53
2022-12-03T15:54:12.188Z,102160.34
2022-12-03T15:59:16.427Z,102153.31
2022-12-03T16:04:19.193Z,102159.47
2022-12-03T16:09:27.124Z,102157.44
2022-12-03T16:14:31.640Z,102149.31
2022-12-03T16:19:34.889Z,102156.69
2022-12-03T16:24:37.659Z,102151.50
2022-12-03T16:29:41.780Z,102161.47
2022-12-03T16:34:44.541Z,102164.25
2022-12-03T16:39:47.290Z,102174.81
2022-12-03T16:45:22.906Z,102178.13
2022-12-03T16:50:29.824Z,102171.84
2022-12-03T16:55:33.146Z,102173.16
2022-12-03T17:00:37.686Z,102171.31
2022-12-03T17:05:40.494Z,102167.63
2022-12-03T17:10:43.485Z,102171.66
2022-12-03T17:15:47.678Z,102175.94
2022-12-03T17:20:50.484Z,102178.88
2022-12-03T17:25:53.212Z,102177.44
2022-12-03T17:30:57.431Z,102170.59
2022-12-03T17:36:00.271Z,102175.38
2022-12-03T17:41:03.016Z,102174.09
2022-12-03T17:46:07.486Z,102172.25
2022-12-03T17:51:10.343Z,102170.75
2022-12-03T17:56:13.185Z,102164.50
2022-12-03T18:01:17.547Z,102163.72
2022-12-03T18:06:20.405Z,102166.69
2022-12-03T18:11:24.300Z,102169.09
2022-12-03T18:16:28.879Z,102182.59
2022-12-03T18:21:32.018Z,102177.81
2022-12-03T18:26:35.736Z,102174.84
2022-12-03T18:31:39.982Z,102170.22
2022-12-03T18:36:43.078Z,102166.31
2022-12-03T18:41:45.952Z,102166.31
2022-12-03T18:46:54.575Z,102163.19
2022-12-03T18:51:59.769Z,102173.53
2022-12-03T18:57:02.931Z,102177.81
2022-12-03T19:02:08.240Z,102179.44
2022-12-03T19:07:12.462Z,102181.31
2022-12-03T19:12:16.713Z,102187.59
2022-12-03T19:17:21.472Z,102179.28
2022-12-03T19:22:24.806Z,102195.53
2022-12-03T19:27:29.070Z,102196.63
2022-12-03T19:32:33.451Z,102194.41
2022-12-03T19:37:36.329Z,102199.59
2022-12-03T19:42:39.227Z,102203.66
2022-12-03T19:47:43.703Z,102195.16
2022-12-03T19:52:46.753Z,102203.84
2022-12-03T19:57:49.665Z,102181.13
2022-12-03T20:02:53.823Z,102196.44
2022-12-03T20:07:56.857Z,102196.25
2022-12-03T20:12:59.846Z,102196.25
2022-12-03T20:18:04.029Z,102201.06
2022-12-03T20:23:06.764Z,102205.28
2022-12-03T20:28:09.542Z,102205.28
2022-12-03T20:33:13.685Z,102203.47
2022-12-03T20:38:16.834Z,102199.41
2022-12-03T20:43:20.410Z,102199.03
2022-12-03T20:48:24.547Z,102196.81
2022-12-03T20:53:27.325Z,102204.19
2022-12-03T20:58:31.797Z,102189.06
2022-12-03T21:03:35.966Z,102185.75
2022-12-03T21:08:41.836Z,102199.03
2022-12-03T21:13:46.003Z,102189.59
2022-12-03T21:18:50.495Z,102182.19
2022-12-03T21:23:53.845Z,102196.25
2022-12-03T21:28:56.747Z,102195.53
2022-12-03T21:34:01.343Z,102188.69
2022-12-03T21:39:04.400Z,102189.94
2022-12-03T21:44:07.223Z,102188.31
2022-12-03T21:49:11.356Z,102189.59
2022-12-03T21:54:14.154Z,102191.81
2022-12-03T21:59:16.897Z,102188.50
2022-12-03T22:04:21.018Z,102172.28
2022-12-03T22:09:26.650Z,102183.34
2022-12-03T22:14:29.980Z,102190.53
2022-12-03T22:19:34.257Z,102188.31
2022-12-03T22:24:37.030Z,102187.38
2022-12-03T22:29:39.807Z,102191.09
2022-12-03T22:34:44.096Z,102194.41
2022-12-03T22:39:46.889Z,102195.72
2022-12-03T22:44:49.644Z,102194.75
2022-12-03T22:49:54.087Z,102188.50
2022-12-03T22:54:57.096Z,102179.06
2022-12-03T23:00:00.092Z,102175.94
2022-12-03T23:05:04.485Z,102178.88
2022-12-03T23:10:08.754Z,102171.13
2022-12-03T23:15:12.243Z,102162.47
2022-12-03T23:20:16.958Z,102177.63
2022-12-03T23:25:20.673Z,102183.34
2022-12-03T23:30:23.405Z,102179.44
2022-12-03T23:35:27.516Z,102179.44
2022-12-03T23:40:30.303Z,102185.56
2022-12-03T23:45:33.977Z,102183.88
2022-12-03T23:50:39.721Z,102190.72
2022-12-03T23:55:42.493Z,102187.38
